Time;durP1;ratioP1;P1;durP2;ratioP2;P2;SDS_P1;SDS_P2;PMS_P1;PMS_P2;Temp;Humidity;BMP_temperature;BMP_pressure;BME280_temperature;BME280_humidity;BME280_pressure;Samples;Min_cycle;Max_cycle;Signal;HPM_P1;HPM_P2
2023/06/22 04:04:12;;;;;;;9.30;6.47;;;19.20;99.90;;;;;;6138015;22;20411;-64
2023/06/22 04:06:38;;;;;;;5.07;4.57;;;19.30;99.90;;;;;;5033695;28;20497;-62
2023/06/22 04:09:05;;;;;;;5.83;5.30;;;19.40;99.90;;;;;;5035903;28;20411;-63
2023/06/22 04:11:31;;;;;;;8.43;5.13;;;19.40;99.90;;;;;;5035651;28;20470;-63
2023/06/22 04:13:56;;;;;;;5.43;4.93;;;19.40;99.90;;;;;;5034803;28;20445;-64
2023/06/22 04:16:22;;;;;;;8.33;5.50;;;19.50;99.90;;;;;;5015963;28;20175;-63
2023/06/22 04:18:47;;;;;;;6.37;5.47;;;19.60;99.90;;;;;;5015868;28;20175;-63
2023/06/22 04:21:13;;;;;;;5.33;4.87;;;19.70;99.90;;;;;;5015562;28;20185;-62
2023/06/22 04:23:39;;;;;;;8.53;5.70;;;19.80;99.90;;;;;;5015300;28;20178;-63
2023/06/22 04:26:05;;;;;;;5.40;4.87;;;20.00;99.90;;;;;;5015574;28;20443;-62
2023/06/22 04:28:34;;;;;;;5.70;5.20;;;20.10;99.90;;;;;;5015872;28;20213;-63
2023/06/22 04:31:03;;;;;;;6.10;5.50;;;20.20;99.90;;;;;;5014320;28;20268;-62
2023/06/22 04:33:29;;;;;;;4.53;4.13;;;20.30;99.90;;;;;;5015666;28;20384;-63
2023/06/22 04:35:57;;;;;;;5.13;4.33;;;20.40;99.90;;;;;;5014264;28;20436;-62
2023/06/22 04:38:23;;;;;;;6.83;4.73;;;20.50;99.90;;;;;;5015273;28;20532;-62
2023/06/22 04:40:49;;;;;;;4.87;4.37;;;20.60;99.90;;;;;;5003693;28;20419;-62
2023/06/22 04:43:15;;;;;;;5.30;4.77;;;20.80;99.90;;;;;;4995254;28;20771;-62
2023/06/22 04:45:40;;;;;;;4.80;4.40;;;20.90;99.90;;;;;;4995511;28;20446;-62
2023/06/22 04:48:06;;;;;;;4.83;4.33;;;21.00;99.90;;;;;;4998907;28;20187;-63
2023/06/22 04:50:32;;;;;;;4.00;3.60;;;21.20;99.90;;;;;;5014524;28;20226;-62
2023/06/22 04:52:57;;;;;;;5.07;4.07;;;21.30;99.90;;;;;;5014864;28;20542;-63
2023/06/22 04:55:25;;;;;;;4.87;4.47;;;21.40;99.90;;;;;;5014682;28;20285;-62
2023/06/22 04:57:51;;;;;;;4.97;4.50;;;21.50;99.90;;;;;;5014920;28;20220;-63
2023/06/22 05:00:22;;;;;;;5.80;4.37;;;21.60;99.90;;;;;;5014850;28;20440;-63
2023/06/22 05:02:48;;;;;;;3.30;3.03;;;21.70;99.90;;;;;;5014765;28;20438;-63
2023/06/22 05:05:14;;;;;;;3.50;3.20;;;21.80;99.90;;;;;;5014268;28;20487;-63
2023/06/22 05:07:44;;;;;;;4.03;3.63;;;21.90;99.90;;;;;;5014953;28;20174;-63
2023/06/22 05:10:14;;;;;;;4.37;3.90;;;21.90;99.90;;;;;;5014734;28;20470;-63
2023/06/22 05:12:41;;;;;;;4.63;4.20;;;22.00;99.90;;;;;;5014388;28;20421;-63
2023/06/22 05:15:08;;;;;;;5.90;3.87;;;21.90;99.90;;;;;;5014060;28;20399;-63
2023/06/22 05:17:34;;;;;;;4.50;4.07;;;22.00;99.90;;;;;;5014234;28;20438;-63
2023/06/22 05:20:01;;;;;;;4.30;3.47;;;22.10;99.90;;;;;;5014569;28;20400;-63
2023/06/22 05:22:26;;;;;;;3.37;3.07;;;22.10;99.90;;;;;;5014840;28;20767;-61
2023/06/22 05:24:52;;;;;;;4.20;3.77;;;22.20;99.90;;;;;;5014209;28;20420;-63
2023/06/22 05:27:17;;;;;;;4.07;3.70;;;22.30;99.90;;;;;;5014191;28;20694;-63
2023/06/22 05:29:43;;;;;;;4.17;3.57;;;22.40;99.90;;;;;;5012893;28;20601;-61
2023/06/22 05:32:09;;;;;;;3.30;3.00;;;22.50;99.90;;;;;;5014158;28;20196;-62
2023/06/22 05:34:35;;;;;;;4.53;4.13;;;22.70;99.90;;;;;;5003675;28;20197;-62
2023/06/22 05:37:01;;;;;;;4.17;3.87;;;22.80;99.90;;;;;;4994508;28;20168;-60
2023/06/22 05:39:26;;;;;;;3.43;3.13;;;22.80;99.90;;;;;;4991846;28;20187;-62
2023/06/22 05:41:52;;;;;;;3.40;3.10;;;22.90;99.90;;;;;;4992376;28;20982;-62
2023/06/22 05:44:18;;;;;;;3.20;2.90;;;23.10;99.90;;;;;;4991960;28;20215;-62
2023/06/22 05:46:46;;;;;;;3.93;3.60;;;23.30;99.90;;;;;;4992033;28;20507;-63
2023/06/22 05:49:12;;;;;;;3.60;3.30;;;23.40;99.90;;;;;;4992158;28;20400;-62
2023/06/22 05:51:38;;;;;;;3.60;3.30;;;23.50;99.90;;;;;;4992257;28;20461;-63
2023/06/22 05:54:04;;;;;;;5.10;3.20;;;23.60;99.90;;;;;;4991629;28;20817;-62
2023/06/22 05:56:29;;;;;;;3.50;3.20;;;23.70;99.90;;;;;;4992193;28;20168;-63
2023/06/22 05:58:55;;;;;;;3.43;3.13;;;23.80;99.90;;;;;;4992304;28;20250;-63
2023/06/22 06:01:21;;;;;;;2.67;2.47;;;23.80;99.90;;;;;;4992041;28;20229;-63
2023/06/22 06:03:46;;;;;;;4.97;3.20;;;24.00;99.90;;;;;;4991835;28;20699;-63
2023/06/22 06:06:12;;;;;;;4.10;3.70;;;24.10;99.90;;;;;;4991950;28;20515;-63
2023/06/22 06:08:39;;;;;;;3.20;2.87;;;24.30;99.90;;;;;;4991389;28;20613;-63
2023/06/22 06:11:04;;;;;;;4.67;3.10;;;24.40;99.90;;;;;;4991594;28;20523;-63
2023/06/22 06:13:30;;;;;;;3.50;3.20;;;24.50;99.90;;;;;;4991742;28;20987;-63
2023/06/22 06:15:57;;;;;;;3.83;3.43;;;24.60;99.90;;;;;;4994472;28;20557;-63
2023/06/22 06:18:22;;;;;;;3.70;3.40;;;24.60;99.90;;;;;;5013703;28;20297;-59
2023/06/22 06:20:48;;;;;;;2.97;2.77;;;24.60;99.90;;;;;;5013820;28;20868;-60
2023/06/22 06:23:14;;;;;;;2.50;2.30;;;24.70;99.90;;;;;;5013531;28;20194;-61
2023/06/22 06:25:40;;;;;;;4.00;2.43;;;24.70;99.90;;;;;;5012088;28;20209;-61
2023/06/22 06:28:05;;;;;;;2.33;2.00;;;24.70;99.90;;;;;;5013521;28;20171;-62
2023/06/22 06:30:31;;;;;;;4.73;3.03;;;24.60;99.90;;;;;;5011501;28;20190;-61
2023/06/22 06:32:57;;;;;;;2.60;2.40;;;24.60;99.90;;;;;;5013322;28;20179;-60
2023/06/22 06:35:23;;;;;;;4.30;2.80;;;24.60;99.90;;;;;;5013173;28;20405;-61
2023/06/22 06:37:50;;;;;;;3.07;2.43;;;24.70;99.90;;;;;;5013582;28;20225;-59
2023/06/22 06:40:17;;;;;;;3.10;2.80;;;24.80;99.90;;;;;;5013555;28;20462;-61
2023/06/22 06:42:45;;;;;;;3.50;3.07;;;24.90;99.90;;;;;;5013527;28;20768;-61
2023/06/22 06:45:25;;;;;;;2.73;2.60;;;25.00;99.90;;;;;;5013020;28;20392;-61
2023/06/22 06:47:51;;;;;;;3.90;3.60;;;25.10;99.90;;;;;;5012227;28;20425;-59
2023/06/22 06:50:17;;;;;;;2.97;2.53;;;25.10;99.90;;;;;;5012152;28;20384;-63
2023/06/22 06:52:43;;;;;;;3.30;2.40;;;25.20;99.90;;;;;;5013342;28;20384;-63
2023/06/22 06:55:13;;;;;;;2.57;2.30;;;25.30;99.90;;;;;;5012860;28;20568;-62
2023/06/22 06:57:40;;;;;;;2.83;2.50;;;25.50;99.90;;;;;;5013815;28;20163;-64
2023/06/22 07:00:13;;;;;;;3.63;3.33;;;25.60;99.90;;;;;;5013208;28;20383;-64
2023/06/22 07:02:43;;;;;;;2.87;2.60;;;25.80;99.90;;;;;;5013253;28;20428;-62
2023/06/22 07:05:11;;;;;;;3.40;2.83;;;26.00;99.90;;;;;;5012652;28;20564;-63
2023/06/22 07:07:36;;;;;;;3.60;3.30;;;26.10;99.90;;;;;;5013135;28;20926;-63
2023/06/22 07:10:02;;;;;;;2.87;2.67;;;26.10;99.90;;;;;;5013267;28;20381;-63
2023/06/22 07:12:28;;;;;;;2.87;2.47;;;26.20;99.90;;;;;;5013198;28;20201;-63
2023/06/22 07:15:01;;;;;;;2.90;2.70;;;26.40;99.90;;;;;;5012839;28;20759;-60
2023/06/22 07:17:26;;;;;;;3.00;2.70;;;26.40;99.90;;;;;;5012119;28;20185;-62
2023/06/22 07:19:52;;;;;;;3.87;3.57;;;26.50;99.90;;;;;;5012836;28;20378;-60
2023/06/22 07:22:17;;;;;;;2.63;2.43;;;26.60;99.90;;;;;;5013460;28;20190;-61
2023/06/22 07:24:43;;;;;;;4.70;4.20;;;26.70;99.90;;;;;;5012767;28;20728;-58
2023/06/22 07:27:11;;;;;;;4.10;3.70;;;26.90;99.90;;;;;;5012806;28;20178;-63
2023/06/22 07:29:37;;;;;;;3.50;2.87;;;27.20;99.90;;;;;;5013091;28;20640;-59
2023/06/22 07:32:05;;;;;;;2.80;2.60;;;27.60;99.90;;;;;;5012959;28;20503;-62
2023/06/22 07:34:30;;;;;;;2.83;2.63;;;27.90;99.90;;;;;;5012538;28;20425;-60
2023/06/22 07:36:56;;;;;;;3.20;2.90;;;28.30;99.90;;;;;;5012921;28;20456;-63
2023/06/22 07:39:26;;;;;;;2.83;2.53;;;29.10;99.90;;;;;;5013203;28;20199;-62
2023/06/22 07:41:52;;;;;;;6.57;2.70;;;29.90;98.50;;;;;;5015685;28;20183;-62
2023/06/22 07:44:17;;;;;;;3.10;2.90;;;30.50;97.60;;;;;;5015861;28;20449;-60
2023/06/22 07:46:43;;;;;;;2.63;2.43;;;31.40;96.90;;;;;;5016668;28;20911;-63
2023/06/22 07:49:08;;;;;;;2.60;2.40;;;32.30;94.10;;;;;;5015163;28;20252;-62
2023/06/22 07:51:34;;;;;;;3.30;2.30;;;33.00;91.70;;;;;;5016446;28;20206;-61
2023/06/22 07:54:00;;;;;;;5.03;3.43;;;33.50;91.00;;;;;;5015767;28;20690;-63
2023/06/22 07:56:26;;;;;;;3.43;3.17;;;33.90;90.60;;;;;;5016096;28;20218;-65
2023/06/22 07:58:51;;;;;;;2.40;2.30;;;34.50;88.80;;;;;;5016174;28;20179;-64
2023/06/22 08:01:19;;;;;;;2.70;2.50;;;34.80;86.60;;;;;;5016226;28;20178;-64
2023/06/22 08:03:44;;;;;;;3.03;2.77;;;34.90;84.50;;;;;;5015550;28;20309;-64
2023/06/22 08:06:10;;;;;;;2.70;2.50;;;35.00;85.20;;;;;;5015744;28;20489;-64
2023/06/22 08:08:36;;;;;;;3.30;3.10;;;35.30;83.80;;;;;;5016001;28;20198;-63
2023/06/22 08:11:02;;;;;;;5.73;3.20;;;35.60;82.30;;;;;;5015756;28;20199;-64
2023/06/22 08:13:28;;;;;;;3.10;2.90;;;35.60;81.20;;;;;;5015692;28;20927;-63
2023/06/22 08:15:53;;;;;;;2.73;2.53;;;35.60;81.00;;;;;;5015964;28;20191;-64
2023/06/22 08:18:19;;;;;;;2.70;2.50;;;35.80;79.20;;;;;;5015739;28;20174;-64
2023/06/22 08:20:44;;;;;;;2.60;2.40;;;35.80;80.00;;;;;;5014692;28;20584;-63
2023/06/22 08:23:10;;;;;;;2.93;2.73;;;36.00;79.60;;;;;;5015126;28;20604;-64
2023/06/22 08:25:36;;;;;;;3.03;2.80;;;36.70;78.50;;;;;;5015062;28;20221;-64
2023/06/22 08:28:03;;;;;;;3.40;3.10;;;37.60;76.10;;;;;;5015081;28;20228;-63
2023/06/22 08:30:29;;;;;;;2.97;2.77;;;38.00;74.10;;;;;;5015490;28;20182;-64
2023/06/22 08:32:55;;;;;;;3.40;3.13;;;38.10;72.80;;;;;;5015878;28;20414;-64
2023/06/22 08:35:24;;;;;;;3.60;2.57;;;37.60;71.80;;;;;;5015164;28;20233;-63
2023/06/22 08:37:52;;;;;;;3.30;2.40;;;37.10;71.90;;;;;;5015352;28;20755;-64
2023/06/22 08:40:19;;;;;;;4.90;2.20;;;36.60;72.60;;;;;;5015131;28;20418;-64
2023/06/22 08:42:46;;;;;;;2.50;2.30;;;36.00;74.10;;;;;;5015006;28;20407;-64
2023/06/22 08:45:12;;;;;;;2.60;2.40;;;35.50;75.70;;;;;;5015431;28;20433;-64
2023/06/22 08:47:38;;;;;;;3.13;2.83;;;35.20;78.40;;;;;;5015372;28;20456;-64
2023/06/22 08:50:05;;;;;;;3.13;2.43;;;35.60;79.20;;;;;;5015278;28;20418;-64
2023/06/22 08:52:31;;;;;;;3.53;2.90;;;36.00;77.90;;;;;;5013962;28;20876;-64
2023/06/22 08:54:58;;;;;;;3.30;3.00;;;36.40;76.90;;;;;;5014097;28;20507;-65
2023/06/22 08:57:23;;;;;;;2.93;2.60;;;36.50;74.50;;;;;;5014973;28;20218;-64
2023/06/22 08:59:51;;;;;;;3.60;2.73;;;36.00;73.80;;;;;;5015031;28;20833;-64
2023/06/22 09:02:17;;;;;;;3.30;3.00;;;35.80;74.70;;;;;;5014667;28;20641;-64
2023/06/22 09:04:43;;;;;;;2.77;2.57;;;35.40;75.10;;;;;;5014170;28;20421;-65
2023/06/22 09:07:08;;;;;;;2.87;2.67;;;35.20;76.70;;;;;;5014335;28;20190;-64
2023/06/22 09:09:34;;;;;;;3.33;3.13;;;35.30;78.80;;;;;;5014837;28;20170;-64
2023/06/22 09:11:59;;;;;;;2.83;2.63;;;36.00;78.70;;;;;;5014320;28;20199;-64
2023/06/22 09:14:25;;;;;;;3.90;2.70;;;36.60;75.10;;;;;;5014309;28;20273;-65
2023/06/22 09:16:51;;;;;;;2.83;2.63;;;37.00;74.00;;;;;;5014771;28;20225;-65
2023/06/22 09:19:16;;;;;;;2.40;2.30;;;37.30;73.40;;;;;;5014862;28;20186;-65
2023/06/22 09:21:42;;;;;;;3.40;3.10;;;37.40;73.00;;;;;;5014514;28;20276;-65
2023/06/22 09:24:08;;;;;;;2.70;2.50;;;37.60;73.70;;;;;;5014000;28;20182;-64
2023/06/22 09:26:33;;;;;;;2.90;2.70;;;37.70;72.80;;;;;;5014292;28;20194;-64
2023/06/22 09:28:59;;;;;;;3.43;3.13;;;38.00;71.10;;;;;;5014209;28;20171;-65
2023/06/22 09:31:27;;;;;;;4.10;3.00;;;38.60;71.10;;;;;;5013983;28;20202;-65
2023/06/22 09:33:54;;;;;;;3.10;3.00;;;39.20;71.50;;;;;;5013977;28;20184;-65
2023/06/22 09:36:20;;;;;;;2.90;2.70;;;39.70;70.10;;;;;;5014339;28;20456;-65
2023/06/22 09:38:46;;;;;;;4.03;3.73;;;40.20;68.50;;;;;;5014124;28;20448;-66
2023/06/22 09:41:11;;;;;;;3.27;3.07;;;40.20;66.70;;;;;;5014171;28;20441;-65
2023/06/22 09:43:37;;;;;;;3.20;3.00;;;40.60;64.10;;;;;;5013905;28;20667;-65
2023/06/22 09:46:02;;;;;;;4.27;3.90;;;41.10;64.10;;;;;;5013869;28;20197;-65
2023/06/22 09:48:30;;;;;;;3.40;3.20;;;41.20;62.90;;;;;;5013986;28;20189;-65
2023/06/22 09:50:56;;;;;;;3.30;3.10;;;41.40;62.10;;;;;;5012949;28;20548;-66
2023/06/22 09:53:21;;;;;;;3.33;3.13;;;41.70;62.00;;;;;;5013965;28;20421;-66
2023/06/22 09:55:47;;;;;;;3.53;3.10;;;41.60;59.80;;;;;;5014139;28;20225;-65
2023/06/22 09:58:12;;;;;;;3.70;3.50;;;41.30;60.30;;;;;;5014192;28;20182;-64
2023/06/22 10:00:38;;;;;;;2.83;2.73;;;40.90;60.50;;;;;;5013727;28;20253;-65
2023/06/22 10:03:04;;;;;;;3.50;3.30;;;40.10;61.10;;;;;;5013724;28;20175;-64
2023/06/22 10:05:29;;;;;;;3.97;3.67;;;39.40;63.50;;;;;;5012521;28;20207;-64
2023/06/22 10:07:55;;;;;;;2.90;2.70;;;39.00;63.70;;;;;;5013487;28;20171;-64
2023/06/22 10:10:20;;;;;;;3.23;2.93;;;39.00;67.50;;;;;;5013946;28;20537;-63
2023/06/22 10:12:48;;;;;;;3.00;2.80;;;39.30;64.00;;;;;;5013905;28;20171;-64
2023/06/22 10:15:15;;;;;;;3.37;3.17;;;39.60;62.90;;;;;;5013323;28;20229;-64
2023/06/22 10:17:41;;;;;;;3.10;2.90;;;39.90;62.30;;;;;;5013684;28;20432;-64
2023/06/22 10:20:13;;;;;;;4.00;3.37;;;39.50;62.00;;;;;;5013646;28;20410;-66
2023/06/22 10:22:44;;;;;;;3.20;2.90;;;39.00;61.90;;;;;;5013438;28;20495;-67
2023/06/22 10:25:11;;;;;;;3.50;3.20;;;38.10;63.60;;;;;;5013249;28;20488;-67
2023/06/22 10:27:39;;;;;;;2.80;2.60;;;37.20;65.60;;;;;;5013501;28;20384;-60
2023/06/22 10:30:06;;;;;;;5.53;3.17;;;36.50;66.90;;;;;;5013580;28;20776;-66
2023/06/22 10:32:32;;;;;;;3.40;3.10;;;36.00;69.20;;;;;;5013513;28;20421;-60
2023/06/22 10:34:58;;;;;;;3.37;3.07;;;35.90;69.40;;;;;;5013216;28;20433;-62
2023/06/22 10:37:24;;;;;;;3.80;3.43;;;35.80;69.90;;;;;;5013634;28;20799;-62
2023/06/22 10:39:49;;;;;;;2.50;2.30;;;35.80;69.90;;;;;;5013351;28;20182;-61
2023/06/22 10:42:15;;;;;;;5.80;2.40;;;35.90;69.80;;;;;;5013382;28;20261;-64
2023/06/22 10:44:43;;;;;;;3.30;3.00;;;35.60;70.00;;;;;;5013111;28;20282;-61
2023/06/22 10:47:08;;;;;;;2.90;2.70;;;35.50;71.10;;;;;;5013213;28;20589;-64
2023/06/22 10:49:34;;;;;;;2.33;2.13;;;35.60;71.30;;;;;;5013284;28;20420;-60
2023/06/22 10:51:59;;;;;;;2.80;2.43;;;35.60;70.50;;;;;;5013375;28;20653;-62
2023/06/22 10:54:25;;;;;;;3.70;3.30;;;35.50;72.10;;;;;;5008007;28;20235;-61
2023/06/22 10:56:50;;;;;;;3.20;2.90;;;35.40;70.50;;;;;;5007727;28;20652;-63
2023/06/22 10:59:16;;;;;;;3.00;2.80;;;35.40;70.00;;;;;;5013569;28;20179;-59
2023/06/22 11:01:42;;;;;;;3.20;2.90;;;35.40;70.40;;;;;;5013267;28;20194;-62
2023/06/22 11:04:07;;;;;;;3.03;2.77;;;35.30;70.50;;;;;;5011544;28;20175;-61
2023/06/22 11:06:33;;;;;;;3.33;3.03;;;34.90;71.00;;;;;;5012950;28;20292;-59
2023/06/22 11:08:59;;;;;;;3.27;2.97;;;34.60;72.00;;;;;;5012870;28;20644;-62
2023/06/22 11:11:25;;;;;;;2.87;2.67;;;34.40;72.40;;;;;;5012869;28;20257;-61
2023/06/22 11:13:52;;;;;;;3.30;2.70;;;34.00;73.90;;;;;;5012973;28;20637;-60
2023/06/22 11:16:17;;;;;;;3.00;2.07;;;33.90;74.50;;;;;;5014794;28;20418;-62
2023/06/22 11:18:43;;;;;;;4.17;3.80;;;33.80;73.50;;;;;;5015088;28;20499;-60
2023/06/22 11:21:08;;;;;;;2.97;2.77;;;33.80;74.10;;;;;;5016631;28;20249;-58
2023/06/22 11:23:34;;;;;;;3.80;3.27;;;33.80;74.50;;;;;;5016504;28;20167;-64
2023/06/22 11:25:59;;;;;;;2.30;2.10;;;33.90;74.30;;;;;;5016811;28;20206;-61
2023/06/22 11:28:25;;;;;;;3.63;3.30;;;33.90;75.00;;;;;;5016397;28;20175;-63
2023/06/22 11:30:51;;;;;;;3.40;3.10;;;33.90;74.50;;;;;;5016902;28;20167;-59
2023/06/22 11:33:17;;;;;;;3.97;3.57;;;33.80;75.10;;;;;;5015883;28;20189;-61
2023/06/22 11:35:43;;;;;;;3.20;2.90;;;33.80;75.60;;;;;;5016571;28;20507;-61
2023/06/22 11:38:08;;;;;;;4.30;3.90;;;33.80;75.50;;;;;;5016584;28;20628;-61
2023/06/22 11:40:34;;;;;;;2.50;2.30;;;34.00;76.20;;;;;;5016472;28;20700;-60
2023/06/22 11:42:59;;;;;;;3.07;2.83;;;34.10;75.50;;;;;;5016711;28;20511;-60
2023/06/22 11:45:25;;;;;;;3.63;3.33;;;34.20;75.70;;;;;;5016021;28;20221;-63
2023/06/22 11:47:51;;;;;;;3.53;3.17;;;34.40;75.20;;;;;;5016223;28;20170;-59
2023/06/22 11:50:16;;;;;;;2.40;2.20;;;34.50;75.40;;;;;;5016560;28;20258;-65
2023/06/22 11:52:42;;;;;;;3.30;3.03;;;34.60;75.00;;;;;;5016391;28;20301;-60
2023/06/22 11:55:08;;;;;;;2.93;2.73;;;34.80;74.20;;;;;;5015729;28;20190;-65
2023/06/22 11:57:35;;;;;;;4.10;2.70;;;34.80;74.10;;;;;;5015926;28;20257;-60
2023/06/22 12:00:01;;;;;;;4.50;2.60;;;34.70;74.90;;;;;;5015844;28;20178;-62
2023/06/22 12:02:27;;;;;;;4.90;3.07;;;34.70;75.30;;;;;;5015393;28;20432;-61
2023/06/22 12:04:56;;;;;;;3.40;3.10;;;34.60;74.70;;;;;;5015137;28;20412;-62
2023/06/22 12:07:21;;;;;;;3.70;3.30;;;34.60;76.10;;;;;;5015787;28;20734;-59
2023/06/22 12:09:47;;;;;;;4.93;3.87;;;34.50;76.20;;;;;;5015789;28;20416;-60
2023/06/22 12:12:12;;;;;;;3.40;3.10;;;34.50;76.20;;;;;;5015842;28;20182;-63
2023/06/22 12:14:38;;;;;;;5.03;4.63;;;34.60;75.90;;;;;;5015369;28;20298;-61
2023/06/22 12:17:04;;;;;;;3.37;3.07;;;34.70;76.10;;;;;;5014676;28;20179;-64
2023/06/22 12:19:29;;;;;;;3.87;3.47;;;34.70;75.80;;;;;;5015660;28;20167;-60
2023/06/22 12:21:55;;;;;;;3.90;3.33;;;34.70;76.70;;;;;;5015490;28;20199;-59
2023/06/22 12:24:20;;;;;;;4.00;3.60;;;34.70;76.70;;;;;;5015177;28;20661;-60
2023/06/22 12:26:46;;;;;;;3.90;3.50;;;34.50;76.90;;;;;;5014811;28;20576;-63
2023/06/22 12:29:11;;;;;;;3.20;2.90;;;34.40;77.40;;;;;;5015594;28;20171;-58
2023/06/22 12:31:39;;;;;;;4.13;3.60;;;34.30;79.00;;;;;;5015113;28;20193;-60
2023/06/22 12:34:05;;;;;;;3.47;3.10;;;34.20;79.30;;;;;;5014965;28;20313;-59
2023/06/22 12:36:30;;;;;;;7.77;7.00;;;34.20;79.10;;;;;;5015292;28;20420;-62
2023/06/22 12:38:56;;;;;;;4.00;3.60;;;34.10;81.00;;;;;;5015482;28;20537;-59
2023/06/22 12:41:22;;;;;;;2.70;2.50;;;33.90;80.20;;;;;;5015411;28;20207;-65
2023/06/22 12:43:47;;;;;;;4.30;4.00;;;33.90;81.00;;;;;;5014638;28;20792;-62
2023/06/22 12:46:13;;;;;;;4.30;3.50;;;33.90;81.70;;;;;;5014257;28;20191;-62
2023/06/22 12:48:42;;;;;;;4.10;3.73;;;33.80;81.30;;;;;;5015186;28;20518;-66
2023/06/22 12:51:09;;;;;;;3.93;3.60;;;33.80;80.40;;;;;;5013917;28;20163;-61
2023/06/22 12:53:34;;;;;;;4.67;3.80;;;33.60;79.90;;;;;;5014949;28;20385;-65
2023/06/22 12:56:00;;;;;;;4.60;3.97;;;33.40;80.40;;;;;;5013743;28;20437;-60
2023/06/22 12:58:25;;;;;;;3.67;3.37;;;33.10;80.80;;;;;;5014675;28;20202;-64
2023/06/22 13:00:51;;;;;;;4.10;3.80;;;32.90;82.20;;;;;;5015044;28;20297;-63
2023/06/22 13:03:16;;;;;;;3.70;3.40;;;32.70;82.50;;;;;;5014936;28;20175;-62
2023/06/22 13:05:42;;;;;;;3.33;3.03;;;32.60;82.40;;;;;;5014804;28;20269;-62
2023/06/22 13:08:08;;;;;;;5.70;3.93;;;32.50;83.10;;;;;;5015264;28;20190;-61
2023/06/22 13:10:33;;;;;;;3.33;3.00;;;32.40;83.50;;;;;;5014182;28;20553;-59
2023/06/22 13:13:00;;;;;;;3.80;3.50;;;32.50;84.30;;;;;;5014526;28;20175;-63
2023/06/22 13:15:29;;;;;;;3.77;3.47;;;32.50;84.90;;;;;;5014216;28;20274;-63
2023/06/22 13:17:56;;;;;;;4.70;4.30;;;32.60;84.50;;;;;;5014413;28;20427;-63
2023/06/22 13:20:21;;;;;;;6.83;3.90;;;32.60;83.20;;;;;;5014609;28;20383;-61
2023/06/22 13:22:47;;;;;;;5.47;3.53;;;32.70;82.20;;;;;;5014488;28;20767;-58
2023/06/22 13:25:13;;;;;;;3.53;2.90;;;32.70;82.00;;;;;;5014130;28;20194;-64
2023/06/22 13:27:40;;;;;;;3.20;3.00;;;32.60;82.20;;;;;;5014772;28;20640;-59
2023/06/22 13:30:06;;;;;;;3.90;3.53;;;32.60;82.90;;;;;;5013196;28;20380;-61
2023/06/22 13:32:31;;;;;;;3.87;3.47;;;32.70;82.90;;;;;;5014334;28;20494;-64
2023/06/22 13:34:57;;;;;;;4.43;3.27;;;32.90;82.30;;;;;;5013860;28;20491;-61
2023/06/22 13:37:23;;;;;;;3.70;2.90;;;33.00;82.80;;;;;;5014301;28;20178;-60
2023/06/22 13:39:49;;;;;;;3.23;2.93;;;33.20;82.70;;;;;;5014105;28;20392;-61
2023/06/22 13:42:14;;;;;;;3.83;3.30;;;33.40;81.60;;;;;;5014315;28;20269;-62
2023/06/22 13:44:40;;;;;;;3.83;3.37;;;33.50;81.80;;;;;;5012652;28;20545;-61
2023/06/22 13:47:06;;;;;;;4.37;3.57;;;33.50;81.00;;;;;;5013845;28;20328;-64
2023/06/22 13:49:32;;;;;;;4.13;3.10;;;33.60;79.80;;;;;;5014230;28;20179;-59
2023/06/22 13:51:57;;;;;;;4.63;3.90;;;33.60;78.70;;;;;;5014703;28;20726;-60
2023/06/22 13:54:23;;;;;;;3.70;3.43;;;33.70;77.50;;;;;;5013885;28;20285;-59
2023/06/22 13:56:48;;;;;;;3.63;3.40;;;33.70;77.50;;;;;;5013946;28;20171;-65
2023/06/22 13:59:14;;;;;;;3.13;2.93;;;33.80;78.00;;;;;;5014089;28;20178;-59
2023/06/22 14:01:40;;;;;;;4.20;3.83;;;33.90;78.00;;;;;;5013877;28;20230;-65
2023/06/22 14:04:06;;;;;;;4.40;3.20;;;33.90;77.70;;;;;;5013399;28;20463;-61
2023/06/22 14:06:32;;;;;;;3.70;3.40;;;33.90;77.60;;;;;;5013690;28;20404;-61
2023/06/22 14:08:57;;;;;;;5.53;3.47;;;33.90;77.10;;;;;;5013882;28;20629;-64
2023/06/22 14:11:24;;;;;;;3.47;3.17;;;33.90;77.20;;;;;;5013930;28;20179;-61
2023/06/22 14:13:49;;;;;;;3.80;3.30;;;33.80;78.00;;;;;;5013267;28;20221;-61
2023/06/22 14:16:15;;;;;;;2.73;2.53;;;33.90;79.00;;;;;;5013868;28;20443;-61
2023/06/22 14:18:41;;;;;;;3.20;2.90;;;33.90;77.40;;;;;;5013966;28;20174;-65
2023/06/22 14:21:07;;;;;;;3.40;3.10;;;34.00;76.30;;;;;;5013569;28;20249;-60
2023/06/22 14:23:32;;;;;;;3.40;3.10;;;34.00;76.60;;;;;;5013477;28;20183;-65
2023/06/22 14:25:58;;;;;;;4.07;3.50;;;34.00;77.00;;;;;;5013609;28;20413;-60
2023/06/22 14:28:23;;;;;;;3.30;3.00;;;34.10;75.20;;;;;;5013635;28;20203;-65
2023/06/22 14:30:49;;;;;;;4.43;3.77;;;34.10;75.20;;;;;;5013820;28;20175;-59
2023/06/22 14:33:15;;;;;;;2.80;2.60;;;34.10;75.70;;;;;;5013439;28;20657;-64
2023/06/22 14:35:40;;;;;;;2.73;2.53;;;34.20;75.90;;;;;;5013604;28;20191;-60
2023/06/22 14:38:06;;;;;;;2.67;2.30;;;34.10;74.40;;;;;;5013908;28;20170;-63
2023/06/22 14:40:32;;;;;;;6.80;3.37;;;34.00;75.10;;;;;;5013466;28;20174;-65
2023/06/22 14:42:57;;;;;;;4.00;3.40;;;34.00;75.40;;;;;;5013588;28;20381;-61
2023/06/22 14:45:24;;;;;;;3.40;3.10;;;34.10;75.60;;;;;;5012699;28;20676;-62
2023/06/22 14:47:50;;;;;;;2.93;2.73;;;34.10;74.80;;;;;;5013574;28;20202;-60
2023/06/22 14:50:15;;;;;;;3.27;2.70;;;34.20;74.50;;;;;;5014237;28;20510;-65
2023/06/22 14:52:41;;;;;;;3.67;3.20;;;34.20;74.20;;;;;;5017655;28;20167;-61
2023/06/22 14:55:07;;;;;;;3.00;2.80;;;34.30;72.90;;;;;;5016600;28;20222;-68
2023/06/22 14:57:33;;;;;;;2.87;2.67;;;34.40;71.70;;;;;;5015995;28;20237;-62
2023/06/22 14:59:58;;;;;;;6.00;3.63;;;34.40;70.70;;;;;;5016919;28;20396;-63
2023/06/22 15:02:24;;;;;;;2.10;2.00;;;34.40;72.00;;;;;;5017230;28;20201;-66
2023/06/22 15:04:50;;;;;;;3.37;2.80;;;34.30;69.40;;;;;;5016636;28;20275;-62
2023/06/22 15:07:15;;;;;;;2.23;2.00;;;34.20;68.30;;;;;;5017350;28;20258;-61
2023/06/22 15:09:42;;;;;;;3.10;2.90;;;34.10;68.50;;;;;;5016770;28;20704;-60
2023/06/22 15:12:11;;;;;;;3.30;2.80;;;33.90;69.20;;;;;;5017167;28;20173;-60
2023/06/22 15:14:45;;;;;;;2.23;2.13;;;33.70;71.50;;;;;;5016530;28;20432;-59
2023/06/22 15:17:14;;;;;;;2.97;2.67;;;33.70;71.90;;;;;;5015828;28;20392;-64
2023/06/22 15:19:39;;;;;;;3.50;2.70;;;33.60;71.60;;;;;;5017075;28;20814;-64
2023/06/22 15:22:06;;;;;;;4.60;2.53;;;33.40;70.10;;;;;;5016809;28;20424;-60
2023/06/22 15:24:32;;;;;;;3.27;2.97;;;33.40;70.40;;;;;;5016224;28;20198;-61
2023/06/22 15:26:58;;;;;;;3.70;2.40;;;33.30;69.60;;;;;;5016797;28;20413;-65
2023/06/22 15:29:24;;;;;;;3.20;2.60;;;33.30;67.50;;;;;;5016970;28;20394;-61
2023/06/22 15:31:51;;;;;;;1.40;1.17;;;33.30;65.50;;;;;;5016811;28;20171;-65
2023/06/22 15:34:16;;;;;;;3.03;2.10;;;33.20;62.40;;;;;;5016099;28;20426;-60
2023/06/22 15:36:42;;;;;;;3.13;2.20;;;33.20;62.40;;;;;;5016687;28;20383;-64
2023/06/22 15:39:07;;;;;;;1.80;1.70;;;33.10;61.10;;;;;;5016061;28;20669;-63
2023/06/22 15:41:33;;;;;;;2.90;1.90;;;32.90;62.80;;;;;;5016529;28;20202;-67
2023/06/22 15:43:59;;;;;;;2.10;1.80;;;32.90;61.40;;;;;;5015996;28;20172;-65
2023/06/22 15:46:24;;;;;;;4.70;2.10;;;32.80;61.60;;;;;;5016590;28;20553;-67
2023/06/22 15:48:50;;;;;;;1.80;1.40;;;32.60;61.30;;;;;;5016337;28;20172;-67
2023/06/22 15:51:15;;;;;;;2.33;2.00;;;32.50;60.40;;;;;;5016484;28;20178;-60
2023/06/22 15:53:41;;;;;;;2.17;1.87;;;32.40;62.60;;;;;;5015774;28;20645;-63
2023/06/22 15:56:09;;;;;;;1.90;1.60;;;32.30;61.50;;;;;;5016201;28;20195;-63
2023/06/22 15:58:36;;;;;;;4.47;2.40;;;32.30;62.00;;;;;;5016232;28;20190;-65
2023/06/22 16:01:03;;;;;;;3.93;2.03;;;32.30;61.40;;;;;;5015665;28;20884;-62
2023/06/22 16:03:29;;;;;;;1.87;1.70;;;32.30;61.20;;;;;;5015663;28;20416;-68
2023/06/22 16:05:54;;;;;;;1.53;1.43;;;32.40;62.00;;;;;;5015966;28;20456;-63
2023/06/22 16:08:20;;;;;;;4.40;1.30;;;32.40;61.80;;;;;;5016412;28;20388;-67
2023/06/22 16:10:46;;;;;;;1.53;1.43;;;32.40;60.60;;;;;;5016049;28;20171;-64
2023/06/22 16:13:11;;;;;;;2.50;2.30;;;32.40;60.10;;;;;;5015674;28;20531;-59
2023/06/22 16:15:37;;;;;;;1.50;1.37;;;32.40;60.00;;;;;;5015481;28;20195;-64
2023/06/22 16:18:02;;;;;;;2.10;1.80;;;32.30;59.90;;;;;;5015724;28;20190;-64
2023/06/22 16:20:28;;;;;;;2.10;1.63;;;32.20;60.50;;;;;;5015850;28;20170;-64
2023/06/22 16:22:54;;;;;;;3.50;3.20;;;32.10;60.90;;;;;;5015569;28;20198;-64
2023/06/22 16:25:19;;;;;;;1.80;1.70;;;32.00;61.70;;;;;;5015408;28;20542;-65
2023/06/22 16:27:46;;;;;;;2.23;2.03;;;31.90;62.10;;;;;;5015753;28;20167;-64
2023/06/22 16:30:11;;;;;;;3.17;2.13;;;31.80;64.00;;;;;;5015469;28;20198;-66
2023/06/22 16:32:37;;;;;;;2.03;1.83;;;31.70;63.70;;;;;;5015393;28;20767;-64
2023/06/22 16:35:03;;;;;;;2.00;1.90;;;31.60;64.80;;;;;;5014513;28;20623;-66
2023/06/22 16:37:29;;;;;;;3.20;2.77;;;31.60;63.60;;;;;;5015020;28;20221;-64
2023/06/22 16:39:54;;;;;;;3.07;2.07;;;31.50;63.90;;;;;;5014981;28;20493;-64
2023/06/22 16:42:20;;;;;;;2.40;2.20;;;31.40;64.70;;;;;;4995913;28;20199;-64
2023/06/22 16:44:45;;;;;;;2.00;1.90;;;31.40;65.40;;;;;;5006016;28;20226;-62